Toksook Bay, Alaska
Current Conditions -  °F | °C
As of 12:56 AM on Saturday 25 Oct 2014 (Local Time) from PAOO Reporting Station
Broken Clouds Broken Clouds  
Wind Chill: 25°   Ceiling: 4600
Heat Index: 35°   Visibility: 10mi
Dew Point: 33°   Wind: 15mph
Humidity: 92%   Direction: 160°SSE
Pressure: 29.86"   Gusts: NA
Location:  60.53°N, 165.1°W
Report Text: PAOO 250856Z AUTO 16013KT 10SM BKN046 02/01 A2986 RMK AO2 TSNO 56010 T00160005 400271044 SLP113 $
Loading
Personal Weather Stations






























Interactive Weather Map
Tropical Storm Tracking
New forecast layout! Learn more

10-Day Weather Forecast

Advertisements
Track Severe Weather on mobile